Time;durP1;ratioP1;P1;durP2;ratioP2;P2;SDS_P1;SDS_P2;PMS_P1;PMS_P2;Temp;Humidity;BMP_temperature;BMP_pressure;BME280_temperature;BME280_humidity;BME280_pressure;Samples;Min_cycle;Max_cycle;Signal;HPM_P1;HPM_P2
2022/12/18 00:01:58;;;;;;;106.40;32.63;;;-0.90;99.90;;;;;;5066695;28;20033;-68
2022/12/18 00:04:25;;;;;;;97.55;33.50;;;-0.80;99.90;;;;;;5055214;28;20107;-68
2022/12/18 00:06:51;;;;;;;107.55;32.92;;;-0.80;99.90;;;;;;5064389;28;20047;-67
2022/12/18 00:09:17;;;;;;;92.22;27.15;;;-0.80;99.90;;;;;;5061651;28;20460;-69
2022/12/18 00:11:43;;;;;;;98.35;29.90;;;-0.70;99.90;;;;;;5057714;28;20120;-67
2022/12/18 00:14:10;;;;;;;99.85;31.67;;;-0.70;99.90;;;;;;5068269;28;20484;-67
2022/12/18 00:16:36;;;;;;;72.40;23.30;;;-0.70;99.90;;;;;;5056273;28;20107;-67
2022/12/18 00:19:03;;;;;;;97.82;30.70;;;-0.70;99.90;;;;;;5063376;28;20048;-67
2022/12/18 00:21:30;;;;;;;70.57;23.70;;;-0.80;99.90;;;;;;5051595;28;20033;-68
2022/12/18 00:23:56;;;;;;;84.20;29.05;;;-0.90;99.90;;;;;;5070921;28;20396;-67
2022/12/18 00:26:24;;;;;;;93.30;29.75;;;-0.90;99.90;;;;;;5058815;28;20033;-67
2022/12/18 00:28:51;;;;;;;82.15;26.40;;;-0.90;99.90;;;;;;5068490;28;20063;-67
2022/12/18 00:31:20;;;;;;;75.57;25.35;;;-0.80;99.90;;;;;;5064797;28;20028;-67
2022/12/18 00:33:46;;;;;;;46.80;18.35;;;-0.90;99.90;;;;;;5061065;28;20037;-68
2022/12/18 00:36:20;;;;;;;86.93;28.00;;;-0.90;99.90;;;;;;5070916;28;20043;-68
2022/12/18 00:38:47;;;;;;;60.72;22.05;;;-0.90;99.90;;;;;;5060910;28;20476;-68
2022/12/18 00:42:55;;;;;;;106.72;29.13;;;-0.80;99.90;;;;;;5064970;28;20021;-67
2022/12/18 00:44:00;;;;;;;93.60;30.42;;;-0.80;99.90;;;;;;5070750;28;20155;-68
2022/12/18 00:46:26;;;;;;;91.13;30.10;;;-0.90;99.90;;;;;;5057878;28;20028;-68
2022/12/18 00:48:51;;;;;;;82.53;27.58;;;-0.90;99.90;;;;;;5067952;28;20037;-68
2022/12/18 00:51:17;;;;;;;83.50;32.40;;;-0.90;99.90;;;;;;5064467;28;20032;-68
2022/12/18 00:53:42;;;;;;;82.63;29.38;;;-1.00;99.90;;;;;;5060846;28;20021;-68
2022/12/18 00:56:08;;;;;;;74.38;25.15;;;-1.00;99.90;;;;;;5070836;28;20033;-67
2022/12/18 00:58:37;;;;;;;103.55;29.45;;;-1.10;99.90;;;;;;5058814;28;20107;-68
2022/12/18 01:01:04;;;;;;;98.75;34.47;;;-1.10;99.90;;;;;;5066169;28;20068;-68
2022/12/18 01:03:30;;;;;;;99.38;31.15;;;-1.10;99.90;;;;;;5066134;28;20453;-67
2022/12/18 01:05:57;;;;;;;93.75;30.42;;;-1.10;99.90;;;;;;5058763;28;20036;-67
2022/12/18 01:08:23;;;;;;;92.57;29.55;;;-1.10;99.90;;;;;;5070729;28;20032;-67
2022/12/18 01:10:48;;;;;;;83.43;30.77;;;-1.00;99.90;;;;;;5060313;28;20372;-68
2022/12/18 01:13:14;;;;;;;80.50;24.98;;;-1.00;99.90;;;;;;5064074;28;20037;-67
2022/12/18 01:15:39;;;;;;;94.40;28.85;;;-1.00;99.90;;;;;;5063371;28;20033;-67
2022/12/18 01:18:11;;;;;;;100.85;29.80;;;-1.00;99.90;;;;;;5053445;28;20116;-68
2022/12/18 01:20:45;;;;;;;78.57;26.85;;;-1.10;99.90;;;;;;5071518;28;20024;-68
2022/12/18 01:23:15;;;;;;;88.05;28.40;;;-1.00;99.90;;;;;;5064080;28;20524;-69
2022/12/18 01:25:42;;;;;;;85.60;28.02;;;-0.90;99.90;;;;;;5067186;28;20086;-69
2022/12/18 01:28:07;;;;;;;81.35;29.45;;;-0.80;99.90;;;;;;5056772;28;20029;-68
2022/12/18 01:30:33;;;;;;;83.63;29.45;;;-0.80;99.90;;;;;;5069555;28;20047;-68
2022/12/18 01:33:02;;;;;;;100.97;32.03;;;-0.80;99.90;;;;;;5060703;28;20090;-68
2022/12/18 01:35:28;;;;;;;82.63;27.27;;;-0.80;99.90;;;;;;5066771;28;20067;-67
2022/12/18 01:37:55;;;;;;;72.45;25.15;;;-0.80;99.90;;;;;;5058174;28;20053;-67
2022/12/18 01:40:20;;;;;;;73.93;24.70;;;-0.90;99.90;;;;;;5069832;28;20110;-68
2022/12/18 01:42:53;;;;;;;79.57;28.33;;;-1.00;99.90;;;;;;5058878;28;20366;-68
2022/12/18 01:45:23;;;;;;;83.18;25.65;;;-1.00;99.90;;;;;;5063024;28;20029;-68
2022/12/18 01:48:15;;;;;;;95.38;28.83;;;-1.10;99.90;;;;;;5067837;28;20017;-68
2022/12/18 01:50:42;;;;;;;111.90;28.33;;;-1.00;99.90;;;;;;5042957;28;20477;-68
2022/12/18 01:53:13;;;;;;;53.63;19.73;;;-1.10;99.90;;;;;;5063670;28;20025;-68
2022/12/18 01:55:46;;;;;;;79.65;27.73;;;-1.10;99.90;;;;;;5066282;28;20043;-68
2022/12/18 01:58:12;;;;;;;92.82;29.23;;;-1.10;99.90;;;;;;5056592;28;20116;-68
2022/12/18 02:00:37;;;;;;;82.45;28.70;;;-1.10;99.90;;;;;;5068234;28;20112;-68
2022/12/18 02:03:03;;;;;;;89.88;28.13;;;-1.10;99.90;;;;;;5061195;28;20395;-68
2022/12/18 02:06:22;;;;;;;94.68;29.50;;;-1.00;99.90;;;;;;5060859;28;20029;-68
2022/12/18 02:09:14;;;;;;;90.05;30.58;;;-1.00;99.90;;;;;;5043507;28;20504;-68
2022/12/18 02:12:01;;;;;;;80.78;27.95;;;-0.90;99.90;;;;;;5059321;28;20028;-68
2022/12/18 02:14:41;;;;;;;86.70;30.17;;;-0.90;99.90;;;;;;5069043;28;20597;-68
2022/12/18 02:17:16;;;;;;;94.68;30.92;;;-0.90;99.90;;;;;;5061237;28;20468;-68
2022/12/18 02:20:09;;;;;;;96.38;33.33;;;-0.90;99.90;;;;;;5059385;28;20025;-68
2022/12/18 02:23:04;;;;;;;83.07;29.70;;;-1.00;99.90;;;;;;5068889;28;20021;-68
2022/12/18 02:25:51;;;;;;;115.03;40.67;;;-1.10;99.90;;;;;;5064087;28;20487;-68
2022/12/18 02:28:20;;;;;;;123.47;41.22;;;-1.10;99.90;;;;;;5055765;28;20471;-68
2022/12/18 02:30:48;;;;;;;86.15;29.75;;;-1.30;99.90;;;;;;5066346;28;20032;-68
2022/12/18 02:33:15;;;;;;;85.22;31.35;;;-1.30;99.90;;;;;;5062113;28;20036;-68
2022/12/18 02:35:42;;;;;;;76.20;27.05;;;-1.30;99.90;;;;;;5059240;28;20079;-68
2022/12/18 02:38:09;;;;;;;95.00;32.88;;;-1.30;99.90;;;;;;5068771;28;20033;-68
2022/12/18 02:40:35;;;;;;;85.60;28.65;;;-1.20;99.90;;;;;;5056478;28;20093;-68
2022/12/18 02:43:13;;;;;;;90.05;31.17;;;-1.20;99.90;;;;;;5063904;28;20071;-68
2022/12/18 02:45:54;;;;;;;90.47;27.23;;;-1.20;99.90;;;;;;5064319;28;20029;-68
2022/12/18 02:48:24;;;;;;;99.45;31.38;;;-1.20;99.90;;;;;;5055790;28;20041;-67
2022/12/18 02:51:14;;;;;;;120.65;28.85;;;-1.20;99.90;;;;;;5065672;28;20400;-68
2022/12/18 02:54:18;;;;;;;72.20;24.17;;;-1.20;99.90;;;;;;5065317;28;20049;-67
2022/12/18 02:56:53;;;;;;;82.45;26.48;;;-1.30;99.90;;;;;;5048852;28;20119;-67
2022/12/18 02:59:35;;;;;;;72.95;24.38;;;-1.30;99.90;;;;;;5061315;28;20100;-68
2022/12/18 03:02:27;;;;;;;72.68;24.58;;;-1.30;99.90;;;;;;5068009;28;20036;-68
2022/12/18 03:05:06;;;;;;;77.00;26.27;;;-1.30;99.90;;;;;;5045948;28;20032;-67
2022/12/18 03:07:40;;;;;;;82.20;26.23;;;-1.30;99.90;;;;;;5059430;28;20037;-68
2022/12/18 03:10:09;;;;;;;70.22;24.75;;;-1.30;99.90;;;;;;5068165;28;20033;-67
2022/12/18 03:12:39;;;;;;;71.75;25.25;;;-1.30;99.90;;;;;;5056204;28;20494;-67
2022/12/18 03:15:08;;;;;;;61.67;24.05;;;-1.30;99.90;;;;;;5063545;28;20107;-68
2022/12/18 03:17:35;;;;;;;72.10;25.98;;;-1.40;99.90;;;;;;5064201;28;20461;-68
2022/12/18 03:20:12;;;;;;;85.90;26.42;;;-1.40;99.90;;;;;;5055723;28;20033;-67
2022/12/18 03:22:40;;;;;;;76.25;26.25;;;-1.30;99.90;;;;;;5053599;28;20059;-68
2022/12/18 03:25:10;;;;;;;76.78;26.45;;;-1.30;99.90;;;;;;5062950;28;20425;-68
2022/12/18 03:27:39;;;;;;;78.05;27.17;;;-1.20;99.90;;;;;;5063241;28;20456;-68
2022/12/18 03:30:13;;;;;;;82.05;27.67;;;-1.20;99.90;;;;;;5054963;28;20078;-67
2022/12/18 03:32:52;;;;;;;62.97;26.55;;;-1.20;99.90;;;;;;5066750;28;20047;-67
2022/12/18 03:35:26;;;;;;;84.13;26.48;;;-1.20;99.90;;;;;;5061742;28;20024;-68
2022/12/18 03:37:52;;;;;;;124.25;31.08;;;-1.20;99.90;;;;;;5056322;28;20040;-67
2022/12/18 03:40:20;;;;;;;89.10;26.00;;;-1.10;99.90;;;;;;5068338;28;20070;-67
2022/12/18 03:42:58;;;;;;;72.38;25.02;;;-1.10;99.90;;;;;;5057472;28;20027;-68
2022/12/18 03:45:42;;;;;;;72.95;24.40;;;-1.20;99.90;;;;;;5058354;28;20024;-67
2022/12/18 03:48:20;;;;;;;67.82;23.85;;;-1.20;99.90;;;;;;5068543;28;20495;-67
2022/12/18 03:51:05;;;;;;;72.57;24.55;;;-1.30;99.90;;;;;;5057325;28;20044;-68
2022/12/18 03:53:49;;;;;;;68.63;25.20;;;-1.30;99.90;;;;;;5059500;28;20049;-68
2022/12/18 03:56:16;;;;;;;75.60;23.48;;;-1.20;99.90;;;;;;5068052;28;20411;-68
2022/12/18 03:58:43;;;;;;;66.70;23.70;;;-1.20;99.90;;;;;;5058583;28;20024;-68
2022/12/18 04:01:12;;;;;;;67.72;23.25;;;-1.20;99.90;;;;;;5055305;28;20036;-68
2022/12/18 04:03:38;;;;;;;62.00;22.13;;;-1.30;99.90;;;;;;5062262;28;20032;-68
2022/12/18 04:06:06;;;;;;;67.10;22.65;;;-1.30;99.90;;;;;;5071698;28;20032;-68
2022/12/18 04:08:34;;;;;;;65.70;23.27;;;-1.20;99.90;;;;;;5059105;28;20039;-68
2022/12/18 04:11:00;;;;;;;66.32;23.70;;;-1.30;99.90;;;;;;5067514;28;20096;-68
2022/12/18 04:13:33;;;;;;;63.72;23.30;;;-1.30;99.90;;;;;;5066426;28;20607;-68
2022/12/18 04:15:59;;;;;;;61.47;21.30;;;-1.40;99.90;;;;;;5058901;28;20028;-68
2022/12/18 04:18:25;;;;;;;61.03;22.73;;;-1.40;99.90;;;;;;5071289;28;20035;-68
2022/12/18 04:20:50;;;;;;;61.50;21.63;;;-1.50;99.90;;;;;;5061515;28;20021;-68
2022/12/18 04:23:16;;;;;;;62.88;24.08;;;-1.50;99.90;;;;;;5064418;28;20025;-68
2022/12/18 04:25:42;;;;;;;57.67;21.52;;;-1.60;99.90;;;;;;5068329;28;20041;-68
2022/12/18 04:28:07;;;;;;;56.25;21.42;;;-1.70;99.90;;;;;;5058187;28;20377;-68
2022/12/18 04:30:33;;;;;;;53.30;20.55;;;-1.70;99.90;;;;;;5070633;28;20021;-68
2022/12/18 04:32:58;;;;;;;56.60;21.73;;;-1.80;99.90;;;;;;5062133;28;20035;-68
2022/12/18 04:35:24;;;;;;;55.22;22.08;;;-1.80;99.90;;;;;;5063226;28;20064;-67
2022/12/18 04:37:49;;;;;;;58.42;23.05;;;-1.80;99.90;;;;;;5068901;28;20395;-68
2022/12/18 04:40:15;;;;;;;57.10;21.30;;;-1.90;99.90;;;;;;5057992;28;20075;-68
2022/12/18 04:42:41;;;;;;;57.00;22.05;;;-1.80;99.90;;;;;;5069246;28;20043;-68
2022/12/18 04:45:07;;;;;;;60.28;23.17;;;-1.90;99.90;;;;;;5063085;28;20021;-67
2022/12/18 04:47:33;;;;;;;58.92;22.95;;;-1.80;99.90;;;;;;5067428;28;20424;-67
2022/12/18 04:49:58;;;;;;;62.47;22.23;;;-1.80;99.90;;;;;;5058228;28;20103;-67
2022/12/18 04:52:24;;;;;;;67.57;24.10;;;-1.80;99.90;;;;;;5070328;28;20060;-68
2022/12/18 04:54:50;;;;;;;61.35;22.40;;;-1.80;99.90;;;;;;5060948;28;20375;-67
2022/12/18 04:57:15;;;;;;;57.33;22.88;;;-1.90;99.90;;;;;;5064201;28;20112;-68
2022/12/18 04:59:41;;;;;;;67.50;26.15;;;-1.80;99.90;;;;;;5067893;28;20025;-67
2022/12/18 05:02:06;;;;;;;58.55;22.95;;;-1.80;99.90;;;;;;5057510;28;20021;-67
2022/12/18 05:04:32;;;;;;;61.58;23.42;;;-1.90;99.90;;;;;;5070497;28;20433;-68
2022/12/18 05:06:57;;;;;;;52.42;22.33;;;-1.90;99.90;;;;;;5061449;28;20032;-68
2022/12/18 05:09:23;;;;;;;61.47;23.52;;;-1.90;99.90;;;;;;5061917;28;20025;-68
2022/12/18 05:11:49;;;;;;;59.55;23.40;;;-2.00;99.90;;;;;;5068669;28;20041;-67
2022/12/18 05:14:14;;;;;;;55.70;22.75;;;-2.00;99.90;;;;;;5057729;28;20152;-68
2022/12/18 05:16:40;;;;;;;60.80;24.17;;;-2.10;99.90;;;;;;5069260;28;20033;-68
2022/12/18 05:19:06;;;;;;;66.25;25.52;;;-2.10;99.90;;;;;;5062554;28;20020;-68
2022/12/18 05:21:31;;;;;;;59.63;24.15;;;-2.20;99.90;;;;;;5061598;28;20536;-68
2022/12/18 05:23:57;;;;;;;63.30;23.27;;;-2.30;99.90;;;;;;5069793;28;20564;-68
2022/12/18 05:26:22;;;;;;;65.40;23.35;;;-2.30;99.90;;;;;;5057436;28;20438;-68
2022/12/18 05:28:48;;;;;;;58.35;24.25;;;-2.30;99.90;;;;;;5066497;28;20055;-68
2022/12/18 05:31:14;;;;;;;61.53;25.10;;;-2.30;99.90;;;;;;5063371;28;20021;-67
2022/12/18 05:33:39;;;;;;;61.67;23.20;;;-2.30;99.90;;;;;;5060436;28;20091;-67
2022/12/18 05:36:08;;;;;;;67.63;23.15;;;-2.40;99.90;;;;;;5070404;28;20028;-67
2022/12/18 05:38:36;;;;;;;54.92;23.05;;;-2.40;99.90;;;;;;5058295;28;20063;-67
2022/12/18 05:41:03;;;;;;;59.45;23.02;;;-2.50;99.90;;;;;;5065754;28;20131;-68
2022/12/18 05:43:29;;;;;;;62.53;23.67;;;-2.50;99.90;;;;;;5065204;28;20036;-67
2022/12/18 05:45:56;;;;;;;66.75;26.38;;;-2.50;99.90;;;;;;5055606;28;20036;-67
2022/12/18 05:51:40;;;;;;;58.33;23.40;;;-2.60;99.90;;;;;;5066934;28;20052;-67
2022/12/18 05:54:06;;;;;;;72.68;27.48;;;-2.60;99.90;;;;;;5056876;28;20033;-67
2022/12/18 05:56:31;;;;;;;60.20;23.80;;;-2.70;99.90;;;;;;5069799;28;20025;-67
2022/12/18 05:58:57;;;;;;;66.07;26.02;;;-2.70;99.90;;;;;;5060735;28;20027;-66
2022/12/18 06:01:26;;;;;;;65.35;26.35;;;-2.70;99.90;;;;;;5062047;28;20025;-67
2022/12/18 06:03:51;;;;;;;67.55;25.70;;;-2.70;99.90;;;;;;5066524;28;20666;-67
2022/12/18 06:06:26;;;;;;;83.53;27.58;;;-2.70;99.90;;;;;;5055192;28;20098;-67
2022/12/18 06:08:52;;;;;;;104.72;30.52;;;-2.80;99.90;;;;;;5065615;28;20385;-67
2022/12/18 06:11:21;;;;;;;475.25;71.28;;;-2.80;99.90;;;;;;5049887;28;20025;-67
2022/12/18 06:13:50;;;;;;;80.18;26.35;;;-2.80;99.90;;;;;;5066392;28;20044;-67
2022/12/18 06:16:15;;;;;;;71.18;27.88;;;-2.80;99.90;;;;;;5056466;28;20047;-67
2022/12/18 06:18:41;;;;;;;171.73;36.17;;;-2.80;99.90;;;;;;5067750;28;20373;-67
2022/12/18 06:21:06;;;;;;;102.18;30.95;;;-2.80;99.90;;;;;;5061207;28;20392;-67
2022/12/18 06:23:32;;;;;;;76.60;29.27;;;-2.80;99.90;;;;;;5060802;28;20029;-67
2022/12/18 06:25:58;;;;;;;74.35;28.15;;;-2.80;99.90;;;;;;5068598;28;20036;-67
2022/12/18 06:28:23;;;;;;;76.35;28.55;;;-2.90;99.90;;;;;;5056347;28;20060;-67
2022/12/18 06:30:49;;;;;;;197.90;39.22;;;-2.90;99.90;;;;;;5066358;28;20036;-67
2022/12/18 06:33:16;;;;;;;341.98;58.40;;;-2.90;99.90;;;;;;5062451;28;20039;-67
2022/12/18 06:35:42;;;;;;;78.97;30.60;;;-3.00;99.90;;;;;;5059252;28;20051;-67
2022/12/18 06:38:07;;;;;;;78.30;28.35;;;-3.00;99.90;;;;;;5069032;28;20032;-67
2022/12/18 06:40:33;;;;;;;86.88;30.02;;;-2.90;99.90;;;;;;5055490;28;20024;-67
2022/12/18 06:42:59;;;;;;;66.30;27.42;;;-3.00;99.90;;;;;;5063460;28;20035;-67
2022/12/18 06:45:24;;;;;;;60.88;26.20;;;-3.00;99.90;;;;;;5063632;28;20086;-67
2022/12/18 06:47:50;;;;;;;70.30;29.60;;;-3.00;99.90;;;;;;5057849;28;20408;-67
2022/12/18 06:50:16;;;;;;;67.28;27.08;;;-3.00;99.90;;;;;;5068959;28;20048;-67
2022/12/18 06:52:43;;;;;;;74.22;27.33;;;-3.00;99.90;;;;;;5057547;28;20115;-67
2022/12/18 06:55:09;;;;;;;333.92;61.05;;;-3.00;99.90;;;;;;5062910;28;20071;-67
2022/12/18 06:57:35;;;;;;;66.45;27.08;;;-2.90;99.90;;;;;;5064798;28;20419;-67
2022/12/18 07:00:01;;;;;;;68.30;26.65;;;-2.90;99.90;;;;;;5056315;28;20025;-66
2022/12/18 07:02:26;;;;;;;73.03;27.35;;;-2.90;99.90;;;;;;5068698;28;20033;-67
2022/12/18 07:04:52;;;;;;;62.45;25.70;;;-2.90;99.90;;;;;;5057964;28;20033;-67
2022/12/18 07:07:17;;;;;;;60.55;25.15;;;-2.90;99.90;;;;;;5062103;28;20040;-68
2022/12/18 07:09:44;;;;;;;78.40;27.90;;;-2.90;99.90;;;;;;5064822;28;20037;-67
2022/12/18 07:12:09;;;;;;;208.50;46.30;;;-2.90;99.90;;;;;;5050482;28;20041;-67
2022/12/18 07:14:35;;;;;;;97.88;27.63;;;-2.90;99.90;;;;;;5055006;28;20031;-67
2022/12/18 07:17:00;;;;;;;64.55;26.10;;;-2.90;99.90;;;;;;5063383;28;20025;-67
2022/12/18 07:19:26;;;;;;;56.72;25.70;;;-2.90;99.90;;;;;;5062705;28;20036;-67
2022/12/18 07:21:51;;;;;;;341.23;61.88;;;-2.90;99.90;;;;;;5056505;28;20025;-67
2022/12/18 07:24:17;;;;;;;162.82;35.35;;;-2.90;99.90;;;;;;5066165;28;20609;-67
2022/12/18 07:26:46;;;;;;;61.33;25.00;;;-2.90;99.90;;;;;;5057460;28;20024;-67
2022/12/18 07:29:11;;;;;;;58.13;25.00;;;-2.90;99.90;;;;;;5062661;28;20028;-67
2022/12/18 07:31:37;;;;;;;116.22;28.45;;;-2.90;99.90;;;;;;5065809;28;20427;-67
2022/12/18 07:34:02;;;;;;;99.63;27.25;;;-3.00;99.90;;;;;;5060004;28;20036;-67
2022/12/18 07:36:28;;;;;;;223.40;43.20;;;-3.00;99.90;;;;;;5072800;28;20082;-68
2022/12/18 07:38:53;;;;;;;56.08;24.55;;;-3.00;99.90;;;;;;5063002;28;20048;-67
2022/12/18 07:41:20;;;;;;;62.72;24.17;;;-3.00;99.90;;;;;;5065296;28;20104;-67
2022/12/18 07:43:46;;;;;;;52.55;23.77;;;-3.00;99.90;;;;;;5069993;28;20020;-67
2022/12/18 07:46:13;;;;;;;55.53;23.23;;;-3.00;99.90;;;;;;5059415;28;20029;-67
2022/12/18 07:48:40;;;;;;;51.30;22.10;;;-2.90;99.90;;;;;;5070349;28;20051;-67
2022/12/18 07:51:07;;;;;;;45.55;21.33;;;-2.90;99.90;;;;;;5063912;28;20468;-67
2022/12/18 07:53:33;;;;;;;44.20;20.63;;;-2.90;99.90;;;;;;5062828;28;20053;-67
2022/12/18 07:56:02;;;;;;;43.47;20.15;;;-2.90;99.90;;;;;;5071339;28;20021;-67
2022/12/18 07:58:29;;;;;;;40.28;18.33;;;-2.90;99.90;;;;;;5059145;28;20051;-67
2022/12/18 08:00:54;;;;;;;38.22;19.25;;;-2.90;99.90;;;;;;5068641;28;20025;-67
2022/12/18 08:03:20;;;;;;;43.22;19.33;;;-2.90;99.90;;;;;;5065459;28;20416;-67
2022/12/18 08:05:45;;;;;;;53.25;19.02;;;-2.80;99.90;;;;;;5061608;28;20078;-67
2022/12/18 08:08:11;;;;;;;43.08;18.80;;;-2.80;99.90;;;;;;5071569;28;20091;-67
2022/12/18 08:10:38;;;;;;;40.55;18.58;;;-2.70;99.90;;;;;;5060096;28;20067;-67
2022/12/18 08:13:03;;;;;;;42.30;18.95;;;-2.70;99.90;;;;;;5066915;28;20087;-67
2022/12/18 08:15:29;;;;;;;38.92;17.60;;;-2.70;99.90;;;;;;5067293;28;20037;-67
2022/12/18 08:17:57;;;;;;;35.35;16.35;;;-2.70;99.90;;;;;;5059906;28;20036;-67
2022/12/18 08:20:23;;;;;;;36.72;17.27;;;-2.70;99.90;;;;;;5071579;28;20111;-67
2022/12/18 08:22:48;;;;;;;36.35;17.05;;;-2.60;99.90;;;;;;5060788;28;20108;-67
2022/12/18 08:25:14;;;;;;;38.20;16.85;;;-2.60;99.90;;;;;;5065061;28;20067;-66
2022/12/18 08:27:40;;;;;;;35.33;17.70;;;-2.60;99.90;;;;;;5067803;28;20139;-66
2022/12/18 08:30:06;;;;;;;36.17;17.48;;;-2.50;99.90;;;;;;5058305;28;20025;-66
2022/12/18 08:32:32;;;;;;;37.40;17.50;;;-2.50;99.90;;;;;;5070326;28;20029;-67
2022/12/18 08:34:58;;;;;;;36.60;16.55;;;-2.50;99.90;;;;;;5062449;28;20111;-67
2022/12/18 08:37:24;;;;;;;33.90;16.30;;;-2.50;99.90;;;;;;5063032;28;20032;-67
2022/12/18 08:39:50;;;;;;;35.90;16.98;;;-2.40;99.90;;;;;;5069444;28;20150;-67
2022/12/18 08:45:00;;;;;;;38.00;17.20;;;-2.30;99.90;;;;;;5067239;28;20036;-67
2022/12/18 08:47:25;;;;;;;34.22;16.27;;;-2.20;99.90;;;;;;5065980;28;20028;-67
2022/12/18 08:49:51;;;;;;;32.97;16.00;;;-2.20;99.90;;;;;;5058338;28;20504;-67
2022/12/18 08:52:17;;;;;;;32.03;15.50;;;-2.10;99.90;;;;;;5070839;28;20045;-67
2022/12/18 08:54:42;;;;;;;32.97;16.75;;;-2.00;99.90;;;;;;5059705;28;20020;-67
2022/12/18 08:57:08;;;;;;;31.38;15.57;;;-1.90;99.90;;;;;;5065402;28;20033;-67
2022/12/18 08:59:34;;;;;;;30.33;14.57;;;-1.90;99.90;;;;;;5067036;28;20079;-67
2022/12/18 09:01:59;;;;;;;34.42;16.25;;;-1.80;99.90;;;;;;5058450;28;20040;-67
2022/12/18 09:04:25;;;;;;;31.83;16.02;;;-1.80;99.90;;;;;;5070673;28;20412;-68
2022/12/18 09:06:50;;;;;;;30.90;14.90;;;-1.70;99.90;;;;;;5060717;28;20020;-67
2022/12/18 09:09:16;;;;;;;35.90;15.18;;;-1.60;99.90;;;;;;5064301;28;20104;-67
2022/12/18 09:11:42;;;;;;;33.25;15.57;;;-1.60;99.90;;;;;;5067693;28;20044;-67
2022/12/18 09:14:09;;;;;;;30.92;14.85;;;-1.50;99.90;;;;;;5056601;28;20056;-68
2022/12/18 09:16:35;;;;;;;31.20;14.68;;;-1.50;99.90;;;;;;5069414;28;20029;-68
2022/12/18 09:19:04;;;;;;;31.13;14.35;;;-1.40;99.90;;;;;;5060555;28;20426;-67
2022/12/18 09:21:32;;;;;;;31.10;14.68;;;-1.40;99.90;;;;;;5062085;28;20044;-68
2022/12/18 09:23:57;;;;;;;28.95;13.57;;;-1.30;99.90;;;;;;5069691;28;20138;-68
2022/12/18 09:26:24;;;;;;;29.00;14.23;;;-1.20;99.90;;;;;;5057548;28;20408;-68
2022/12/18 09:28:50;;;;;;;27.02;13.50;;;-1.10;99.90;;;;;;5067456;28;20427;-67
2022/12/18 09:31:18;;;;;;;33.97;14.25;;;-1.10;99.90;;;;;;5063645;28;20021;-68
2022/12/18 09:33:45;;;;;;;30.15;13.82;;;-1.00;99.90;;;;;;5059831;28;20033;-68
2022/12/18 09:36:12;;;;;;;29.92;13.77;;;-1.00;99.90;;;;;;5070565;28;20025;-67
2022/12/18 09:38:38;;;;;;;32.83;15.18;;;-0.90;99.90;;;;;;5058487;28;20061;-67
2022/12/18 09:41:16;;;;;;;34.88;16.15;;;-0.90;99.90;;;;;;5065734;28;20060;-67
2022/12/18 09:43:57;;;;;;;35.63;14.88;;;-0.90;99.90;;;;;;5067323;28;20064;-67
2022/12/18 09:46:29;;;;;;;27.77;14.10;;;-0.80;99.90;;;;;;5057345;28;20067;-67
2022/12/18 09:49:02;;;;;;;27.35;14.25;;;-0.70;99.90;;;;;;5066577;28;20028;-67
2022/12/18 09:51:43;;;;;;;32.95;14.85;;;-0.70;99.90;;;;;;5064890;28;20035;-67
2022/12/18 09:54:18;;;;;;;29.23;13.38;;;-0.60;99.90;;;;;;5056534;28;20037;-67
2022/12/18 09:56:44;;;;;;;26.67;12.77;;;-0.50;99.90;;;;;;5067824;28;20041;-68
2022/12/18 09:59:25;;;;;;;30.13;13.70;;;-0.50;99.90;;;;;;5062392;28;20021;-68
2022/12/18 10:01:51;;;;;;;28.80;13.45;;;-0.50;99.90;;;;;;5058824;28;20025;-68
2022/12/18 10:04:16;;;;;;;30.27;14.15;;;-0.40;99.90;;;;;;5069968;28;20582;-68
2022/12/18 10:06:57;;;;;;;27.27;13.00;;;-0.30;99.90;;;;;;5058401;28;20021;-68
2022/12/18 10:10:08;;;;;;;27.10;12.88;;;-0.30;99.90;;;;;;5061781;28;20041;-69
2022/12/18 10:12:44;;;;;;;31.02;16.42;;;-0.30;99.90;;;;;;5005692;28;20029;-68
2022/12/18 10:15:30;;;;;;;28.23;11.88;;;-0.30;99.90;;;;;;5021609;28;20034;-67
2022/12/18 10:18:05;;;;;;;25.80;14.02;;;-0.30;99.90;;;;;;5056263;28;20067;-67
2022/12/18 10:20:51;;;;;;;28.38;13.25;;;-0.30;99.90;;;;;;5040651;28;20456;-67
2022/12/18 10:23:32;;;;;;;29.00;13.82;;;-0.30;99.90;;;;;;5062527;28;20112;-67
2022/12/18 10:26:07;;;;;;;29.60;13.57;;;-0.30;99.90;;;;;;5068725;28;20028;-67
2022/12/18 10:28:38;;;;;;;29.20;13.75;;;-0.20;99.90;;;;;;5054746;28;20036;-67
2022/12/18 10:31:21;;;;;;;27.52;13.07;;;-0.20;99.90;;;;;;5064671;28;20017;-68
2022/12/18 10:33:47;;;;;;;25.98;12.98;;;-0.10;99.90;;;;;;5066986;28;20053;-68
2022/12/18 10:36:13;;;;;;;27.67;13.15;;;-0.10;99.90;;;;;;5056494;28;20059;-68
2022/12/18 10:38:39;;;;;;;33.15;13.52;;;-0.10;99.90;;;;;;5067617;28;20028;-68
2022/12/18 10:41:25;;;;;;;30.30;14.10;;;0.00;99.90;;;;;;5061274;28;20648;-68
2022/12/18 10:44:26;;;;;;;26.48;12.60;;;0.00;99.90;;;;;;5057673;28;20045;-67
2022/12/18 10:47:02;;;;;;;28.92;14.20;;;0.20;99.90;;;;;;5045308;28;20032;-67
2022/12/18 10:49:31;;;;;;;33.60;17.33;;;0.20;99.90;;;;;;5060688;28;20079;-67
2022/12/18 10:52:18;;;;;;;31.73;14.75;;;0.20;99.90;;;;;;5067417;28;20401;-67
2022/12/18 10:55:03;;;;;;;30.80;14.93;;;0.30;99.90;;;;;;5043311;28;20028;-67
2022/12/18 10:57:41;;;;;;;29.20;14.80;;;0.30;99.90;;;;;;5060495;28;20052;-67
2022/12/18 11:00:30;;;;;;;27.98;13.82;;;0.30;99.90;;;;;;5068975;28;20028;-67
2022/12/18 11:02:56;;;;;;;28.00;14.70;;;0.30;99.90;;;;;;5059405;28;20461;-68
2022/12/18 11:05:33;;;;;;;28.65;13.32;;;0.40;99.90;;;;;;5060510;28;20931;-68
2022/12/18 11:08:00;;;;;;;27.48;14.15;;;0.40;99.90;;;;;;5067518;28;20070;-68
2022/12/18 11:10:29;;;;;;;26.20;11.98;;;0.50;99.90;;;;;;5051721;28;20120;-68
2022/12/18 11:12:54;;;;;;;31.73;13.27;;;0.60;99.90;;;;;;5052197;28;20044;-68
2022/12/18 11:15:30;;;;;;;28.15;12.75;;;0.70;99.90;;;;;;5062423;28;20028;-68
2022/12/18 11:17:59;;;;;;;25.73;12.52;;;0.70;99.90;;;;;;5056757;28;20064;-69
2022/12/18 11:20:36;;;;;;;29.83;12.13;;;0.80;99.90;;;;;;5067292;28;20029;-68
2022/12/18 11:23:12;;;;;;;26.95;12.93;;;0.80;99.90;;;;;;5059877;28;20025;-69
2022/12/18 11:25:38;;;;;;;26.27;12.73;;;0.90;99.90;;;;;;5051887;28;20024;-69
2022/12/18 11:28:25;;;;;;;25.85;11.93;;;0.90;99.90;;;;;;5068613;28;20029;-70
2022/12/18 11:31:18;;;;;;;28.77;13.07;;;0.90;99.90;;;;;;5058711;28;20074;-69
2022/12/18 11:33:50;;;;;;;;;;;0.90;99.90;;;;;;5058758;28;20041;-69
2022/12/18 11:36:17;;;;;;;27.27;13.30;;;1.00;99.90;;;;;;5068530;28;19912;-69
2022/12/18 11:38:44;;;;;;;30.25;13.18;;;0.90;99.90;;;;;;5057302;28;20029;-69
2022/12/18 11:44:28;;;;;;;25.65;12.65;;;1.00;99.90;;;;;;5068572;28;20050;-69
2022/12/18 11:47:21;;;;;;;27.10;13.68;;;1.10;99.90;;;;;;5058565;28;20025;-69
2022/12/18 11:49:49;;;;;;;26.98;12.07;;;1.10;99.90;;;;;;5057391;28;20060;-69
2022/12/18 11:52:32;;;;;;;28.35;12.75;;;1.20;99.90;;;;;;5068208;28;20545;-69
2022/12/18 11:55:01;;;;;;;26.02;13.00;;;1.20;99.90;;;;;;5058982;28;20441;-69
2022/12/18 11:57:40;;;;;;;28.40;13.73;;;1.20;99.90;;;;;;5058668;28;20463;-69
2022/12/18 12:00:22;;;;;;;26.25;13.27;;;1.20;99.90;;;;;;5052860;28;20054;-69
2022/12/18 12:03:10;;;;;;;26.58;12.43;;;1.30;99.90;;;;;;5063973;28;20554;-69
2022/12/18 12:05:53;;;;;;;29.25;13.40;;;1.30;99.90;;;;;;5057355;28;20440;-69
2022/12/18 12:08:37;;;;;;;28.02;13.30;;;1.40;99.90;;;;;;5068505;28;20025;-69
2022/12/18 12:11:23;;;;;;;27.02;12.73;;;1.40;99.90;;;;;;5060106;28;20154;-69
2022/12/18 12:14:07;;;;;;;29.48;13.32;;;1.40;99.90;;;;;;5061327;28;20140;-69
2022/12/18 12:16:41;;;;;;;28.15;13.10;;;1.60;99.90;;;;;;5049834;28;20017;-69
2022/12/18 12:19:25;;;;;;;25.50;11.82;;;1.60;99.90;;;;;;5066362;28;20132;-69
2022/12/18 12:22:03;;;;;;;26.92;12.02;;;1.80;99.90;;;;;;5070191;28;20070;-70
2022/12/18 12:24:49;;;;;;;26.95;12.98;;;1.80;99.90;;;;;;5058913;28;20035;-69
2022/12/18 12:27:20;;;;;;;27.95;13.77;;;1.80;99.90;;;;;;5064874;28;20048;-69
2022/12/18 12:30:15;;;;;;;26.70;11.23;;;1.80;99.90;;;;;;5069432;28;20032;-69
2022/12/18 12:32:43;;;;;;;25.23;11.02;;;1.80;99.90;;;;;;5061022;28;20039;-69
2022/12/18 12:35:47;;;;;;;24.60;12.02;;;1.80;99.90;;;;;;5066461;28;20047;-70
2022/12/18 12:38:24;;;;;;;24.13;11.80;;;1.70;99.90;;;;;;5071446;28;20067;-69
2022/12/18 12:41:01;;;;;;;24.00;12.60;;;1.70;99.90;;;;;;5061217;28;20025;-69
2022/12/18 12:43:39;;;;;;;24.50;11.18;;;1.70;99.90;;;;;;5063589;28;20044;-69
2022/12/18 12:46:15;;;;;;;30.45;13.52;;;1.70;99.90;;;;;;5070649;28;20099;-69
2022/12/18 12:48:52;;;;;;;28.00;12.55;;;1.70;99.90;;;;;;5059775;28;20107;-68
2022/12/18 12:51:27;;;;;;;24.95;11.73;;;1.70;99.90;;;;;;5064639;28;20477;-68
2022/12/18 12:53:55;;;;;;;25.95;12.65;;;1.60;99.90;;;;;;5069308;28;20546;-68
2022/12/18 12:56:22;;;;;;;23.40;12.40;;;1.60;99.90;;;;;;5070322;28;20575;-68